sensor_id;sensor_type;location;lat;lon;timestamp;pressure;altitude;pressure_sealevel;temperature;humidity
13612;BME280;6877;51.436;6.774;2023-04-21T00:01:26;101030.94;;;6.18;100.00
13612;BME280;6877;51.436;6.774;2023-04-21T00:03:55;101043.09;;;6.20;100.00
13612;BME280;6877;51.436;6.774;2023-04-21T00:06:26;101036.16;;;6.19;100.00
13612;BME280;6877;51.436;6.774;2023-04-21T00:08:53;101044.84;;;6.18;100.00
13612;BME280;6877;51.436;6.774;2023-04-21T00:11:25;101034.44;;;6.18;100.00
13612;BME280;6877;51.436;6.774;2023-04-21T00:13:51;101032.69;;;6.20;100.00
13612;BME280;6877;51.436;6.774;2023-04-21T00:16:22;101036.16;;;6.19;100.00
13612;BME280;6877;51.436;6.774;2023-04-21T00:18:49;101038.78;;;6.19;100.00
13612;BME280;6877;51.436;6.774;2023-04-21T00:21:20;101030.13;;;6.19;100.00
13612;BME280;6877;51.436;6.774;2023-04-21T00:23:51;101024.06;;;6.18;100.00
13612;BME280;6877;51.436;6.774;2023-04-21T00:26:23;101027.50;;;6.20;100.00
13612;BME280;6877;51.436;6.774;2023-04-21T00:28:49;101020.56;;;6.19;100.00
13612;BME280;6877;51.436;6.774;2023-04-21T00:31:15;101022.28;;;6.17;100.00
13612;BME280;6877;51.436;6.774;2023-04-21T00:33:42;101021.44;;;6.15;100.00
13612;BME280;6877;51.436;6.774;2023-04-21T00:36:08;101015.38;;;6.16;100.00
13612;BME280;6877;51.436;6.774;2023-04-21T00:38:35;101015.34;;;6.13;100.00
13612;BME280;6877;51.436;6.774;2023-04-21T00:41:01;100996.31;;;6.13;100.00
13612;BME280;6877;51.436;6.774;2023-04-21T00:43:28;100991.97;;;6.13;100.00
13612;BME280;6877;51.436;6.774;2023-04-21T00:45:59;100987.63;;;6.14;100.00
13612;BME280;6877;51.436;6.774;2023-04-21T00:48:31;100992.84;;;6.12;100.00
13612;BME280;6877;51.436;6.774;2023-04-21T00:50:57;100989.38;;;6.13;100.00
13612;BME280;6877;51.436;6.774;2023-04-21T00:53:24;100989.38;;;6.13;100.00
13612;BME280;6877;51.436;6.774;2023-04-21T00:55:50;100985.06;;;6.12;100.00
13612;BME280;6877;51.436;6.774;2023-04-21T00:58:17;100988.50;;;6.11;100.00
13612;BME280;6877;51.436;6.774;2023-04-21T01:00:43;100985.88;;;6.11;100.00
13612;BME280;6877;51.436;6.774;2023-04-21T01:03:14;100986.78;;;6.13;100.00
13612;BME280;6877;51.436;6.774;2023-04-21T01:05:41;100997.16;;;6.13;100.00
13612;BME280;6877;51.436;6.774;2023-04-21T01:08:07;100992.81;;;6.11;100.00
13612;BME280;6877;51.436;6.774;2023-04-21T01:10:34;100982.44;;;6.09;100.00
13612;BME280;6877;51.436;6.774;2023-04-21T01:13:00;100980.69;;;6.10;100.00
13612;BME280;6877;51.436;6.774;2023-04-21T01:15:27;100987.66;;;6.12;100.00
13612;BME280;6877;51.436;6.774;2023-04-21T01:17:56;100986.78;;;6.12;100.00
13612;BME280;6877;51.436;6.774;2023-04-21T01:20:23;100978.97;;;6.10;100.00
13612;BME280;6877;51.436;6.774;2023-04-21T01:22:49;100985.91;;;6.10;100.00
13612;BME280;6877;51.436;6.774;2023-04-21T01:25:16;100975.50;;;6.11;100.00
13612;BME280;6877;51.436;6.774;2023-04-21T01:27:44;100978.09;;;6.11;100.00
13612;BME280;6877;51.436;6.774;2023-04-21T01:30:15;100966.84;;;6.12;100.00
13612;BME280;6877;51.436;6.774;2023-04-21T01:32:42;100965.13;;;6.13;100.00
13612;BME280;6877;51.436;6.774;2023-04-21T01:35:13;100972.94;;;6.16;100.00
13612;BME280;6877;51.436;6.774;2023-04-21T01:37:40;100976.38;;;6.16;100.00
13612;BME280;6877;51.436;6.774;2023-04-21T01:40:08;100972.94;;;6.16;100.00
13612;BME280;6877;51.436;6.774;2023-04-21T01:42:37;100966.88;;;6.15;100.00
13612;BME280;6877;51.436;6.774;2023-04-21T01:45:04;100983.31;;;6.16;100.00
13612;BME280;6877;51.436;6.774;2023-04-21T01:47:31;100974.66;;;6.17;100.00
13612;BME280;6877;51.436;6.774;2023-04-21T01:49:58;100973.78;;;6.16;100.00
13612;BME280;6877;51.436;6.774;2023-04-21T01:52:24;100977.28;;;6.18;100.00
13612;BME280;6877;51.436;6.774;2023-04-21T01:54:50;100963.41;;;6.16;100.00
13612;BME280;6877;51.436;6.774;2023-04-21T01:57:17;100955.59;;;6.18;100.00
13612;BME280;6877;51.436;6.774;2023-04-21T01:59:44;100953.00;;;6.18;100.00
13612;BME280;6877;51.436;6.774;2023-04-21T02:02:10;100946.09;;;6.18;100.00
13612;BME280;6877;51.436;6.774;2023-04-21T02:04:37;100946.09;;;6.18;100.00
13612;BME280;6877;51.436;6.774;2023-04-21T02:07:03;100946.94;;;6.17;100.00
13612;BME280;6877;51.436;6.774;2023-04-21T02:09:30;100953.91;;;6.21;100.00
13612;BME280;6877;51.436;6.774;2023-04-21T02:11:57;100958.22;;;6.19;100.00
13612;BME280;6877;51.436;6.774;2023-04-21T02:14:24;100961.69;;;6.21;100.00
13612;BME280;6877;51.436;6.774;2023-04-21T02:16:56;100959.09;;;6.21;100.00
13612;BME280;6877;51.436;6.774;2023-04-21T02:19:22;100958.22;;;6.22;100.00
13612;BME280;6877;51.436;6.774;2023-04-21T02:21:49;100954.75;;;6.22;100.00
13612;BME280;6877;51.436;6.774;2023-04-21T02:24:16;100961.69;;;6.24;100.00
13612;BME280;6877;51.436;6.774;2023-04-21T02:26:42;100965.16;;;6.25;100.00
13612;BME280;6877;51.436;6.774;2023-04-21T02:29:09;100959.94;;;6.26;100.00
13612;BME280;6877;51.436;6.774;2023-04-21T02:31:40;100959.09;;;6.28;100.00
13612;BME280;6877;51.436;6.774;2023-04-21T02:34:11;100952.16;;;6.30;100.00
13612;BME280;6877;51.436;6.774;2023-04-21T02:36:38;100946.13;;;6.31;100.00
13612;BME280;6877;51.436;6.774;2023-04-21T02:39:04;100942.66;;;6.32;100.00
13612;BME280;6877;51.436;6.774;2023-04-21T02:41:31;100938.34;;;6.34;100.00
13612;BME280;6877;51.436;6.774;2023-04-21T02:43:57;100942.63;;;6.33;100.00
13612;BME280;6877;51.436;6.774;2023-04-21T02:46:28;100932.25;;;6.32;100.00
13612;BME280;6877;51.436;6.774;2023-04-21T02:49:00;100934.84;;;6.32;100.00
13612;BME280;6877;51.436;6.774;2023-04-21T02:51:33;100940.06;;;6.35;100.00
13612;BME280;6877;51.436;6.774;2023-04-21T02:53:59;100938.31;;;6.37;100.00
13612;BME280;6877;51.436;6.774;2023-04-21T02:56:26;100928.78;;;6.39;100.00
13612;BME280;6877;51.436;6.774;2023-04-21T02:58:52;100936.59;;;6.40;100.00
13612;BME280;6877;51.436;6.774;2023-04-21T03:01:18;100939.19;;;6.42;100.00
13612;BME280;6877;51.436;6.774;2023-04-21T03:03:45;100935.72;;;6.43;100.00
13612;BME280;6877;51.436;6.774;2023-04-21T03:06:11;100931.41;;;6.42;100.00
13612;BME280;6877;51.436;6.774;2023-04-21T03:08:42;100932.28;;;6.41;100.00
13612;BME280;6877;51.436;6.774;2023-04-21T03:11:09;100931.41;;;6.42;100.00
13612;BME280;6877;51.436;6.774;2023-04-21T03:13:40;100934.00;;;6.42;100.00
13612;BME280;6877;51.436;6.774;2023-04-21T03:16:12;100936.59;;;6.40;100.00
13612;BME280;6877;51.436;6.774;2023-04-21T03:18:38;100940.91;;;6.40;100.00
13612;BME280;6877;51.436;6.774;2023-04-21T03:21:09;100940.06;;;6.42;100.00
13612;BME280;6877;51.436;6.774;2023-04-21T03:23:41;100941.78;;;6.42;100.00
13612;BME280;6877;51.436;6.774;2023-04-21T03:26:12;100934.88;;;6.44;100.00
13612;BME280;6877;51.436;6.774;2023-04-21T03:28:39;100944.38;;;6.42;100.00
13612;BME280;6877;51.436;6.774;2023-04-21T03:31:05;100944.38;;;6.39;100.00
13612;BME280;6877;51.436;6.774;2023-04-21T03:33:32;100942.66;;;6.38;100.00
13612;BME280;6877;51.436;6.774;2023-04-21T03:35:58;100937.47;;;6.35;100.00
13612;BME280;6877;51.436;6.774;2023-04-21T03:38:29;100949.56;;;6.33;100.00
13612;BME280;6877;51.436;6.774;2023-04-21T03:40:56;100949.56;;;6.30;100.00
13612;BME280;6877;51.436;6.774;2023-04-21T03:43:27;100944.34;;;6.26;100.00
13612;BME280;6877;51.436;6.774;2023-04-21T03:45:54;100948.69;;;6.26;100.00
13612;BME280;6877;51.436;6.774;2023-04-21T03:48:26;100955.63;;;6.22;100.00
13612;BME280;6877;51.436;6.774;2023-04-21T03:50:58;100954.75;;;6.20;100.00
13612;BME280;6877;51.436;6.774;2023-04-21T03:53:29;100956.47;;;6.18;100.00
13612;BME280;6877;51.436;6.774;2023-04-21T03:56:01;100948.69;;;6.23;100.00
13612;BME280;6877;51.436;6.774;2023-04-21T03:58:32;100948.69;;;6.23;100.00
13612;BME280;6877;51.436;6.774;2023-04-21T04:01:05;100940.91;;;6.24;100.00
13612;BME280;6877;51.436;6.774;2023-04-21T04:03:32;100938.31;;;6.24;100.00
13612;BME280;6877;51.436;6.774;2023-04-21T04:06:04;100939.16;;;6.23;100.00
13612;BME280;6877;51.436;6.774;2023-04-21T04:08:30;100941.75;;;6.20;100.00
13612;BME280;6877;51.436;6.774;2023-04-21T04:10:57;100932.22;;;6.16;100.00
13612;BME280;6877;51.436;6.774;2023-04-21T04:13:28;100927.03;;;6.16;100.00
13612;BME280;6877;51.436;6.774;2023-04-21T04:15:54;100938.28;;;6.15;100.00
13612;BME280;6877;51.436;6.774;2023-04-21T04:18:21;100940.88;;;6.12;100.00
13612;BME280;6877;51.436;6.774;2023-04-21T04:20:52;100939.13;;;6.17;100.00
13612;BME280;6877;51.436;6.774;2023-04-21T04:23:24;100935.69;;;6.18;100.00
13612;BME280;6877;51.436;6.774;2023-04-21T04:25:51;100932.22;;;6.19;100.00
13612;BME280;6877;51.436;6.774;2023-04-21T04:28:22;100941.75;;;6.20;100.00
13612;BME280;6877;51.436;6.774;2023-04-21T04:30:48;100945.22;;;6.25;100.00
13612;BME280;6877;51.436;6.774;2023-04-21T04:33:15;100938.31;;;6.24;100.00
13612;BME280;6877;51.436;6.774;2023-04-21T04:35:42;100944.34;;;6.23;100.00
13612;BME280;6877;51.436;6.774;2023-04-21T04:38:13;100945.22;;;6.22;100.00
13612;BME280;6877;51.436;6.774;2023-04-21T04:40:42;100946.94;;;6.23;100.00
13612;BME280;6877;51.436;6.774;2023-04-21T04:43:08;100943.50;;;6.24;100.00
13612;BME280;6877;51.436;6.774;2023-04-21T04:45:43;100933.13;;;6.28;100.00
13612;BME280;6877;51.436;6.774;2023-04-21T04:48:10;100943.53;;;6.31;100.00
13612;BME280;6877;51.436;6.774;2023-04-21T04:50:37;100946.13;;;6.34;100.00
13612;BME280;6877;51.436;6.774;2023-04-21T04:53:11;100941.78;;;6.36;100.00
13612;BME280;6877;51.436;6.774;2023-04-21T04:55:43;100946.09;;;6.40;100.00
13612;BME280;6877;51.436;6.774;2023-04-21T04:58:09;100945.28;;;6.44;100.00
13612;BME280;6877;51.436;6.774;2023-04-21T05:00:36;100951.31;;;6.49;100.00
13612;BME280;6877;51.436;6.774;2023-04-21T05:03:06;100951.31;;;6.49;100.00
13612;BME280;6877;51.436;6.774;2023-04-21T05:05:32;100953.09;;;6.50;100.00
13612;BME280;6877;51.436;6.774;2023-04-21T05:07:59;100956.53;;;6.50;100.00
13612;BME280;6877;51.436;6.774;2023-04-21T05:10:25;100951.34;;;6.52;100.00
13612;BME280;6877;51.436;6.774;2023-04-21T05:12:52;100961.75;;;6.55;100.00
13612;BME280;6877;51.436;6.774;2023-04-21T05:15:18;100960.00;;;6.56;100.00
13612;BME280;6877;51.436;6.774;2023-04-21T05:17:49;100962.63;;;6.54;100.00
13612;BME280;6877;51.436;6.774;2023-04-21T05:20:16;100960.00;;;6.54;100.00
13612;BME280;6877;51.436;6.774;2023-04-21T05:22:42;100963.50;;;6.56;100.00
13612;BME280;6877;51.436;6.774;2023-04-21T05:25:13;100955.69;;;6.58;100.00
13612;BME280;6877;51.436;6.774;2023-04-21T05:27:41;100960.00;;;6.62;100.00
13612;BME280;6877;51.436;6.774;2023-04-21T05:30:13;100960.88;;;6.81;100.00
13612;BME280;6877;51.436;6.774;2023-04-21T05:32:44;100960.88;;;7.08;100.00
13612;BME280;6877;51.436;6.774;2023-04-21T05:35:11;100959.94;;;7.49;100.00
13612;BME280;6877;51.436;6.774;2023-04-21T05:37:40;100964.22;;;7.69;100.00
13612;BME280;6877;51.436;6.774;2023-04-21T05:40:07;100968.47;;;7.97;100.00
13612;BME280;6877;51.436;6.774;2023-04-21T05:42:33;100968.34;;;8.23;100.00
13612;BME280;6877;51.436;6.774;2023-04-21T05:45:06;100969.13;;;8.45;100.00
13612;BME280;6877;51.436;6.774;2023-04-21T05:47:32;100969.16;;;8.31;100.00
13612;BME280;6877;51.436;6.774;2023-04-21T05:49:59;100966.56;;;8.33;100.00
13612;BME280;6877;51.436;6.774;2023-04-21T05:52:25;100965.56;;;8.57;100.00
13612;BME280;6877;51.436;6.774;2023-04-21T05:54:57;100966.44;;;8.57;100.00
13612;BME280;6877;51.436;6.774;2023-04-21T05:57:26;100963.72;;;8.70;100.00
13612;BME280;6877;51.436;6.774;2023-04-21T05:59:53;100956.59;;;8.92;100.00
13612;BME280;6877;51.436;6.774;2023-04-21T06:02:19;100957.16;;;9.26;100.00
13612;BME280;6877;51.436;6.774;2023-04-21T06:04:45;100949.22;;;9.35;100.00
13612;BME280;6877;51.436;6.774;2023-04-21T06:07:17;100956.50;;;9.01;100.00
13612;BME280;6877;51.436;6.774;2023-04-21T06:09:49;100969.75;;;8.78;100.00
13612;BME280;6877;51.436;6.774;2023-04-21T06:12:16;100954.16;;;8.72;100.00
13612;BME280;6877;51.436;6.774;2023-04-21T06:14:47;100952.41;;;8.74;100.00
13612;BME280;6877;51.436;6.774;2023-04-21T06:17:19;100950.63;;;8.77;100.00
13612;BME280;6877;51.436;6.774;2023-04-21T06:19:50;100964.44;;;8.90;100.00
13612;BME280;6877;51.436;6.774;2023-04-21T06:22:19;100957.47;;;8.92;100.00
13612;BME280;6877;51.436;6.774;2023-04-21T06:24:45;100958.41;;;8.82;100.00
13612;BME280;6877;51.436;6.774;2023-04-21T06:27:12;100967.94;;;8.89;100.00
13612;BME280;6877;51.436;6.774;2023-04-21T06:29:39;100969.75;;;8.81;100.00
13612;BME280;6877;51.436;6.774;2023-04-21T06:32:08;100970.47;;;8.97;100.00
13612;BME280;6877;51.436;6.774;2023-04-21T06:34:34;100970.31;;;9.15;100.00
13612;BME280;6877;51.436;6.774;2023-04-21T06:37:00;100959.94;;;9.09;100.00
13612;BME280;6877;51.436;6.774;2023-04-21T06:39:32;100960.69;;;9.22;100.00
13612;BME280;6877;51.436;6.774;2023-04-21T06:41:58;100963.97;;;9.41;100.00
13612;BME280;6877;51.436;6.774;2023-04-21T06:44:25;100958.66;;;9.48;100.00
13612;BME280;6877;51.436;6.774;2023-04-21T06:46:51;100955.88;;;9.64;100.00
13612;BME280;6877;51.436;6.774;2023-04-21T06:49:17;100959.22;;;9.78;100.00
13612;BME280;6877;51.436;6.774;2023-04-21T06:51:44;100952.16;;;9.83;100.00
13612;BME280;6877;51.436;6.774;2023-04-21T06:54:11;100953.06;;;9.82;100.00
13612;BME280;6877;51.436;6.774;2023-04-21T06:56:42;100961.72;;;9.87;100.00
13612;BME280;6877;51.436;6.774;2023-04-21T06:59:14;100952.84;;;10.01;100.00
13612;BME280;6877;51.436;6.774;2023-04-21T07:01:46;100955.94;;;10.30;100.00
13612;BME280;6877;51.436;6.774;2023-04-21T07:04:17;100958.06;;;9.99;100.00
13612;BME280;6877;51.436;6.774;2023-04-21T07:06:47;100966.84;;;9.96;100.00
13612;BME280;6877;51.436;6.774;2023-04-21T07:09:19;100963.41;;;9.91;100.00
13612;BME280;6877;51.436;6.774;2023-04-21T07:11:45;100965.91;;;9.99;100.00
13612;BME280;6877;51.436;6.774;2023-04-21T07:14:12;100956.03;;;10.21;100.00
13612;BME280;6877;51.436;6.774;2023-04-21T07:16:38;100953.63;;;10.09;100.00
13612;BME280;6877;51.436;6.774;2023-04-21T07:19:09;100941.22;;;10.20;100.00
13612;BME280;6877;51.436;6.774;2023-04-21T07:21:41;100945.22;;;10.49;100.00
13612;BME280;6877;51.436;6.774;2023-04-21T07:24:07;100951.88;;;10.70;100.00
13612;BME280;6877;51.436;6.774;2023-04-21T07:26:39;100946.22;;;10.96;100.00
13612;BME280;6877;51.436;6.774;2023-04-21T07:29:05;100949.53;;;11.07;100.00
13612;BME280;6877;51.436;6.774;2023-04-21T07:31:32;100951.72;;;11.30;100.00
13612;BME280;6877;51.436;6.774;2023-04-21T07:33:58;100951.38;;;11.48;100.00
13612;BME280;6877;51.436;6.774;2023-04-21T07:36:29;100946.03;;;11.54;100.00
13612;BME280;6877;51.436;6.774;2023-04-21T07:38:56;100955.53;;;12.05;100.00
13612;BME280;6877;51.436;6.774;2023-04-21T07:41:28;100947.66;;;12.05;100.00
13612;BME280;6877;51.436;6.774;2023-04-21T07:43:54;100947.06;;;12.31;100.00
13612;BME280;6877;51.436;6.774;2023-04-21T07:46:21;100939.63;;;12.50;100.00
13612;BME280;6877;51.436;6.774;2023-04-21T07:48:49;100952.63;;;12.92;100.00
13612;BME280;6877;51.436;6.774;2023-04-21T07:51:15;100941.41;;;13.54;100.00
13612;BME280;6877;51.436;6.774;2023-04-21T07:53:48;100944.38;;;14.02;100.00
13612;BME280;6877;51.436;6.774;2023-04-21T07:56:15;100941.97;;;14.24;100.00
13612;BME280;6877;51.436;6.774;2023-04-21T07:58:41;100954.94;;;14.60;99.44
13612;BME280;6877;51.436;6.774;2023-04-21T08:01:08;100943.63;;;14.56;97.78
13612;BME280;6877;51.436;6.774;2023-04-21T08:03:34;100945.19;;;13.75;94.26
13612;BME280;6877;51.436;6.774;2023-04-21T08:06:01;100951.13;;;12.82;93.27
13612;BME280;6877;51.436;6.774;2023-04-21T08:08:32;100946.31;;;12.63;95.33
13612;BME280;6877;51.436;6.774;2023-04-21T08:10:59;100950.34;;;12.41;98.57
13612;BME280;6877;51.436;6.774;2023-04-21T08:13:30;100953.31;;;12.64;100.00
13612;BME280;6877;51.436;6.774;2023-04-21T08:15:57;100949.41;;;12.81;99.79
13612;BME280;6877;51.436;6.774;2023-04-21T08:18:28;100941.06;;;12.99;98.78
13612;BME280;6877;51.436;6.774;2023-04-21T08:21:00;100957.56;;;13.04;97.54
13612;BME280;6877;51.436;6.774;2023-04-21T08:23:27;100946.81;;;13.13;95.94
13612;BME280;6877;51.436;6.774;2023-04-21T08:25:55;100958.97;;;13.52;97.41
13612;BME280;6877;51.436;6.774;2023-04-21T08:28:27;100955.28;;;13.59;94.67
13612;BME280;6877;51.436;6.774;2023-04-21T08:30:53;100951.81;;;13.88;95.66
13612;BME280;6877;51.436;6.774;2023-04-21T08:33:25;100960.34;;;13.34;90.90
13612;BME280;6877;51.436;6.774;2023-04-21T08:35:51;100955.69;;;12.73;93.14
13612;BME280;6877;51.436;6.774;2023-04-21T08:38:18;100954.81;;;12.74;94.51
13612;BME280;6877;51.436;6.774;2023-04-21T08:40:44;100958.72;;;12.58;93.60
13612;BME280;6877;51.436;6.774;2023-04-21T08:43:11;100961.59;;;13.17;95.97
13612;BME280;6877;51.436;6.774;2023-04-21T08:45:38;100965.47;;;14.30;92.76
13612;BME280;6877;51.436;6.774;2023-04-21T08:48:04;100956.72;;;14.86;90.05
13612;BME280;6877;51.436;6.774;2023-04-21T08:50:32;100961.34;;;15.56;86.46
13612;BME280;6877;51.436;6.774;2023-04-21T08:52:59;100948.66;;;17.43;86.99
13612;BME280;6877;51.436;6.774;2023-04-21T08:55:29;100952.63;;;19.73;83.84
13612;BME280;6877;51.436;6.774;2023-04-21T08:57:56;100953.34;;;20.08;74.19
13612;BME280;6877;51.436;6.774;2023-04-21T09:00:23;100969.41;;;20.38;73.91
13612;BME280;6877;51.436;6.774;2023-04-21T09:02:59;100952.16;;;18.78;71.23
13612;BME280;6877;51.436;6.774;2023-04-21T09:05:30;100956.38;;;17.68;70.17
13612;BME280;6877;51.436;6.774;2023-04-21T09:10:46;100948.38;;;19.18;79.31
13612;BME280;6877;51.436;6.774;2023-04-21T09:13:14;100951.06;;;19.68;74.94
13612;BME280;6877;51.436;6.774;2023-04-21T09:15:48;100949.53;;;18.78;68.50
13612;BME280;6877;51.436;6.774;2023-04-21T09:18:23;100944.84;;;17.50;67.18
13612;BME280;6877;51.436;6.774;2023-04-21T09:21:03;100941.06;;;16.73;73.58
13612;BME280;6877;51.436;6.774;2023-04-21T09:23:43;100937.13;;;15.20;78.41
13612;BME280;6877;51.436;6.774;2023-04-21T09:26:10;100950.53;;;14.60;77.85
13612;BME280;6877;51.436;6.774;2023-04-21T09:28:45;100953.88;;;14.36;79.74
13612;BME280;6877;51.436;6.774;2023-04-21T09:31:17;100951.06;;;13.84;82.18
13612;BME280;6877;51.436;6.774;2023-04-21T09:33:51;100950.88;;;13.59;83.10
13612;BME280;6877;51.436;6.774;2023-04-21T09:36:25;100953.72;;;13.83;84.99
13612;BME280;6877;51.436;6.774;2023-04-21T09:41:21;100938.69;;;14.74;82.49
13612;BME280;6877;51.436;6.774;2023-04-21T09:43:47;100937.88;;;15.23;83.98
13612;BME280;6877;51.436;6.774;2023-04-21T09:46:15;100942.41;;;15.45;80.44
13612;BME280;6877;51.436;6.774;2023-04-21T09:48:45;100931.97;;;14.90;77.15
13612;BME280;6877;51.436;6.774;2023-04-21T09:51:14;100937.06;;;14.70;79.62
13612;BME280;6877;51.436;6.774;2023-04-21T09:53:42;100936.63;;;15.09;82.48
13612;BME280;6877;51.436;6.774;2023-04-21T09:56:13;100943.59;;;15.36;81.27
13612;BME280;6877;51.436;6.774;2023-04-21T09:58:52;100941.81;;;15.85;79.07
13612;BME280;6877;51.436;6.774;2023-04-21T10:01:19;100938.19;;;15.64;77.70
13612;BME280;6877;51.436;6.774;2023-04-21T10:03:47;100925.69;;;15.44;78.25
13612;BME280;6877;51.436;6.774;2023-04-21T10:06:14;100925.38;;;15.03;77.53
13612;BME280;6877;51.436;6.774;2023-04-21T10:08:46;100910.72;;;14.70;82.38
13612;BME280;6877;51.436;6.774;2023-04-21T10:11:17;100912.22;;;14.49;80.96
13612;BME280;6877;51.436;6.774;2023-04-21T10:13:45;100911.22;;;14.25;82.37
13612;BME280;6877;51.436;6.774;2023-04-21T10:16:11;100914.63;;;14.00;80.94
13612;BME280;6877;51.436;6.774;2023-04-21T10:18:43;100912.03;;;13.99;84.07
13612;BME280;6877;51.436;6.774;2023-04-21T10:21:11;100912.53;;;13.82;83.31
13612;BME280;6877;51.436;6.774;2023-04-21T10:23:46;100911.94;;;13.72;84.72
13612;BME280;6877;51.436;6.774;2023-04-21T10:28:59;100908.47;;;14.29;84.59
13612;BME280;6877;51.436;6.774;2023-04-21T10:31:31;100903.50;;;14.75;80.53
13612;BME280;6877;51.436;6.774;2023-04-21T10:34:13;100906.84;;;15.80;81.94
13612;BME280;6877;51.436;6.774;2023-04-21T10:39:26;100908.75;;;16.44;71.77
13612;BME280;6877;51.436;6.774;2023-04-21T10:47:28;100904.81;;;16.54;72.99
13612;BME280;6877;51.436;6.774;2023-04-21T10:49:56;100893.47;;;16.08;72.87
13612;BME280;6877;51.436;6.774;2023-04-21T10:52:31;100895.78;;;15.45;73.14
13612;BME280;6877;51.436;6.774;2023-04-21T10:55:08;100876.13;;;15.05;73.73
13612;BME280;6877;51.436;6.774;2023-04-21T10:57:42;100877.28;;;15.22;72.70
13612;BME280;6877;51.436;6.774;2023-04-21T11:00:16;100884.78;;;15.58;71.87
13612;BME280;6877;51.436;6.774;2023-04-21T11:02:52;100868.97;;;15.58;70.87
13612;BME280;6877;51.436;6.774;2023-04-21T11:05:34;100877.28;;;15.94;70.24
13612;BME280;6877;51.436;6.774;2023-04-21T11:08:05;100859.78;;;17.00;68.02
13612;BME280;6877;51.436;6.774;2023-04-21T11:10:51;100870.78;;;18.07;60.49
13612;BME280;6877;51.436;6.774;2023-04-21T11:13:25;100859.91;;;17.75;63.10
13612;BME280;6877;51.436;6.774;2023-04-21T11:16:04;100862.78;;;17.90;61.69
13612;BME280;6877;51.436;6.774;2023-04-21T11:18:44;100853.41;;;17.82;60.49
13612;BME280;6877;51.436;6.774;2023-04-21T11:21:16;100850.25;;;17.16;62.73
13612;BME280;6877;51.436;6.774;2023-04-21T11:23:53;100850.00;;;16.81;62.91
13612;BME280;6877;51.436;6.774;2023-04-21T11:26:35;100843.69;;;16.41;64.96
13612;BME280;6877;51.436;6.774;2023-04-21T11:29:11;100834.44;;;16.31;65.29
13612;BME280;6877;51.436;6.774;2023-04-21T11:31:44;100845.47;;;15.75;66.77
13612;BME280;6877;51.436;6.774;2023-04-21T11:34:13;100848.78;;;15.80;66.67
13612;BME280;6877;51.436;6.774;2023-04-21T11:36:45;100838.00;;;15.86;67.01
13612;BME280;6877;51.436;6.774;2023-04-21T11:39:16;100831.00;;;16.07;66.09
13612;BME280;6877;51.436;6.774;2023-04-21T11:41:47;100828.34;;;15.85;66.71
13612;BME280;6877;51.436;6.774;2023-04-21T11:44:39;100830.25;;;16.04;67.16
13612;BME280;6877;51.436;6.774;2023-04-21T11:47:13;100813.38;;;16.08;66.92
13612;BME280;6877;51.436;6.774;2023-04-21T11:52:24;100808.06;;;16.30;66.51
13612;BME280;6877;51.436;6.774;2023-04-21T11:57:32;100817.19;;;16.65;62.88
13612;BME280;6877;51.436;6.774;2023-04-21T12:00:00;100809.50;;;17.20;62.18
13612;BME280;6877;51.436;6.774;2023-04-21T12:02:33;100801.03;;;17.51;60.95
13612;BME280;6877;51.436;6.774;2023-04-21T12:05:07;100801.16;;;17.29;60.42
13612;BME280;6877;51.436;6.774;2023-04-21T12:07:41;100796.88;;;17.46;60.07
13612;BME280;6877;51.436;6.774;2023-04-21T12:10:18;100787.91;;;17.67;60.04
13612;BME280;6877;51.436;6.774;2023-04-21T12:12:46;100790.56;;;17.48;59.08
13612;BME280;6877;51.436;6.774;2023-04-21T12:15:20;100787.91;;;17.29;59.32
13612;BME280;6877;51.436;6.774;2023-04-21T12:17:53;100777.47;;;17.07;61.71
13612;BME280;6877;51.436;6.774;2023-04-21T12:20:24;100774.97;;;17.23;60.29
13612;BME280;6877;51.436;6.774;2023-04-21T12:22:53;100774.41;;;17.35;59.74
13612;BME280;6877;51.436;6.774;2023-04-21T12:25:20;100759.66;;;17.11;59.59
13612;BME280;6877;51.436;6.774;2023-04-21T12:27:47;100748.47;;;17.06;61.10
13612;BME280;6877;51.436;6.774;2023-04-21T12:30:14;100736.72;;;17.30;59.86
13612;BME280;6877;51.436;6.774;2023-04-21T12:32:41;100732.75;;;17.41;59.39
13612;BME280;6877;51.436;6.774;2023-04-21T12:35:08;100738.81;;;17.24;58.60
13612;BME280;6877;51.436;6.774;2023-04-21T12:37:35;100731.88;;;17.21;58.75
13612;BME280;6877;51.436;6.774;2023-04-21T12:40:01;100729.56;;;17.51;59.01
13612;BME280;6877;51.436;6.774;2023-04-21T12:42:33;100729.84;;;17.64;58.26
13612;BME280;6877;51.436;6.774;2023-04-21T12:44:59;100726.41;;;17.62;57.22
13612;BME280;6877;51.436;6.774;2023-04-21T12:47:31;100720.00;;;17.49;57.75
13612;BME280;6877;51.436;6.774;2023-04-21T12:50:03;100718.88;;;17.35;57.94
13612;BME280;6877;51.436;6.774;2023-04-21T12:52:30;100719.09;;;17.12;58.38
13612;BME280;6877;51.436;6.774;2023-04-21T12:54:56;100724.28;;;16.95;58.97
13612;BME280;6877;51.436;6.774;2023-04-21T12:57:22;100715.63;;;16.91;59.61
13612;BME280;6877;51.436;6.774;2023-04-21T12:59:49;100722.31;;;16.79;59.58
13612;BME280;6877;51.436;6.774;2023-04-21T13:02:15;100707.91;;;16.66;60.43
13612;BME280;6877;51.436;6.774;2023-04-21T13:04:42;100708.13;;;16.82;59.93
13612;BME280;6877;51.436;6.774;2023-04-21T13:07:13;100710.50;;;17.07;58.35
13612;BME280;6877;51.436;6.774;2023-04-21T13:09:41;100703.44;;;17.07;58.97
13612;BME280;6877;51.436;6.774;2023-04-21T13:12:07;100709.56;;;17.27;58.56
13612;BME280;6877;51.436;6.774;2023-04-21T13:14:34;100701.00;;;17.41;58.10
13612;BME280;6877;51.436;6.774;2023-04-21T13:17:05;100701.97;;;17.57;57.49
13612;BME280;6877;51.436;6.774;2023-04-21T13:19:36;100702.41;;;17.48;57.93
13612;BME280;6877;51.436;6.774;2023-04-21T13:22:06;100698.22;;;17.44;58.37
13612;BME280;6877;51.436;6.774;2023-04-21T13:24:37;100699.78;;;17.29;58.47
13612;BME280;6877;51.436;6.774;2023-04-21T13:27:09;100703.00;;;17.35;58.03
13612;BME280;6877;51.436;6.774;2023-04-21T13:29:35;100703.41;;;17.45;57.55
13612;BME280;6877;51.436;6.774;2023-04-21T13:32:10;100682.03;;;17.50;58.13